Darwin, Australia
Current Conditions -  °F | °C
As of 4:30 PM on Thursday 23 Oct 2014 (Local Time) from YPDN Reporting Station
Clear Clear  
Wind Chill: 90°   Ceiling: Unl
Heat Index: 90°   Visibility: 6mi
Dew Point: 61°   Wind: 18mph
Humidity: 38%   Direction: 10°N
Pressure: 29.8"   Gusts: NA
Location:  12.46°S, 130.84°E
Report Text: YPDN 230730Z 01016KT CAVOK 32/16 Q1009
Loading
Personal Weather Stations






























Interactive Weather Map
Tropical Storm Tracking
New forecast layout! Learn more

10-Day Weather Forecast

Advertisements
Track Severe Weather on mobile